sensor_id;sensor_type;location;lat;lon;timestamp;P1;durP1;ratioP1;P2;durP2;ratioP2
32824;SDS011;51060;42.640;24.356;2022-09-30T00:01:06;21.90;;;8.70;;
32824;SDS011;51060;42.640;24.356;2022-09-30T00:03:33;10.10;;;7.30;;
32824;SDS011;51060;42.640;24.356;2022-09-30T00:06:02;8.50;;;5.30;;
32824;SDS011;51060;42.640;24.356;2022-09-30T00:08:29;5.90;;;4.32;;
32824;SDS011;51060;42.640;24.356;2022-09-30T00:11:02;16.20;;;5.03;;
32824;SDS011;51060;42.640;24.356;2022-09-30T00:13:30;14.50;;;6.47;;
32824;SDS011;51060;42.640;24.356;2022-09-30T00:15:56;52.97;;;9.00;;
32824;SDS011;51060;42.640;24.356;2022-09-30T00:18:22;13.98;;;7.80;;
32824;SDS011;51060;42.640;24.356;2022-09-30T00:20:48;21.02;;;7.50;;
32824;SDS011;51060;42.640;24.356;2022-09-30T00:23:13;12.02;;;7.53;;
32824;SDS011;51060;42.640;24.356;2022-09-30T00:25:39;13.30;;;7.05;;
32824;SDS011;51060;42.640;24.356;2022-09-30T00:28:04;16.85;;;6.78;;
32824;SDS011;51060;42.640;24.356;2022-09-30T00:30:32;13.02;;;6.88;;
32824;SDS011;51060;42.640;24.356;2022-09-30T00:32:58;17.15;;;7.35;;
32824;SDS011;51060;42.640;24.356;2022-09-30T00:35:24;12.52;;;7.28;;
32824;SDS011;51060;42.640;24.356;2022-09-30T00:37:50;52.10;;;8.35;;
32824;SDS011;51060;42.640;24.356;2022-09-30T00:40:17;35.83;;;7.40;;
32824;SDS011;51060;42.640;24.356;2022-09-30T00:42:43;15.23;;;6.68;;
32824;SDS011;51060;42.640;24.356;2022-09-30T00:45:11;11.90;;;6.35;;
32824;SDS011;51060;42.640;24.356;2022-09-30T00:50:41;11.95;;;6.10;;
32824;SDS011;51060;42.640;24.356;2022-09-30T00:53:15;14.20;;;6.40;;
32824;SDS011;51060;42.640;24.356;2022-09-30T00:55:59;14.35;;;6.25;;
32824;SDS011;51060;42.640;24.356;2022-09-30T01:01:07;16.00;;;5.85;;
32824;SDS011;51060;42.640;24.356;2022-09-30T01:03:37;28.05;;;6.10;;
32824;SDS011;51060;42.640;24.356;2022-09-30T01:06:07;21.48;;;6.10;;
32824;SDS011;51060;42.640;24.356;2022-09-30T01:08:35;18.15;;;6.25;;
32824;SDS011;51060;42.640;24.356;2022-09-30T01:11:01;28.95;;;6.80;;
32824;SDS011;51060;42.640;24.356;2022-09-30T01:13:27;20.10;;;6.45;;
32824;SDS011;51060;42.640;24.356;2022-09-30T01:40:42;54.20;;;7.90;;
32824;SDS011;51060;42.640;24.356;2022-09-30T01:46:20;18.30;;;5.93;;
32824;SDS011;51060;42.640;24.356;2022-09-30T01:49:08;10.80;;;5.60;;
32824;SDS011;51060;42.640;24.356;2022-09-30T01:57:17;19.02;;;5.63;;
32824;SDS011;51060;42.640;24.356;2022-09-30T02:02:32;49.50;;;6.60;;
32824;SDS011;51060;42.640;24.356;2022-09-30T02:05:34;45.13;;;6.28;;
32824;SDS011;51060;42.640;24.356;2022-09-30T02:08:22;13.07;;;4.50;;
32824;SDS011;51060;42.640;24.356;2022-09-30T02:10:51;16.77;;;5.45;;
32824;SDS011;51060;42.640;24.356;2022-09-30T02:16:05;10.93;;;4.53;;
32824;SDS011;51060;42.640;24.356;2022-09-30T02:21:19;9.52;;;5.32;;
32824;SDS011;51060;42.640;24.356;2022-09-30T02:23:48;5.97;;;4.78;;
32824;SDS011;51060;42.640;24.356;2022-09-30T02:26:21;12.60;;;5.60;;
32824;SDS011;51060;42.640;24.356;2022-09-30T02:29:04;9.00;;;4.80;;
32824;SDS011;51060;42.640;24.356;2022-09-30T02:31:36;14.00;;;5.30;;
32824;SDS011;51060;42.640;24.356;2022-09-30T02:34:05;33.65;;;6.60;;
32824;SDS011;51060;42.640;24.356;2022-09-30T02:36:36;13.95;;;4.43;;
32824;SDS011;51060;42.640;24.356;2022-09-30T02:39:32;7.72;;;4.53;;
32824;SDS011;51060;42.640;24.356;2022-09-30T02:42:16;3.63;;;3.33;;
32824;SDS011;51060;42.640;24.356;2022-09-30T02:44:47;3.40;;;3.10;;
32824;SDS011;51060;42.640;24.356;2022-09-30T02:47:25;4.00;;;3.55;;
32824;SDS011;51060;42.640;24.356;2022-09-30T02:50:00;3.83;;;3.50;;
32824;SDS011;51060;42.640;24.356;2022-09-30T03:00:41;13.20;;;4.53;;
32824;SDS011;51060;42.640;24.356;2022-09-30T03:03:11;6.68;;;4.30;;
32824;SDS011;51060;42.640;24.356;2022-09-30T03:05:41;11.93;;;4.38;;
32824;SDS011;51060;42.640;24.356;2022-09-30T03:08:07;7.65;;;3.83;;
32824;SDS011;51060;42.640;24.356;2022-09-30T03:10:33;43.55;;;6.60;;
32824;SDS011;51060;42.640;24.356;2022-09-30T03:24:27;20.30;;;9.10;;
32824;SDS011;51060;42.640;24.356;2022-09-30T03:29:44;25.77;;;11.70;;
32824;SDS011;51060;42.640;24.356;2022-09-30T03:35:01;22.67;;;11.75;;
32824;SDS011;51060;42.640;24.356;2022-09-30T03:37:49;22.15;;;9.85;;
32824;SDS011;51060;42.640;24.356;2022-09-30T03:41:07;16.77;;;10.45;;
32824;SDS011;51060;42.640;24.356;2022-09-30T03:43:19;16.15;;;9.15;;
32824;SDS011;51060;42.640;24.356;2022-09-30T03:45:49;27.35;;;13.35;;
32824;SDS011;51060;42.640;24.356;2022-09-30T03:48:26;29.15;;;12.90;;
32824;SDS011;51060;42.640;24.356;2022-09-30T03:50:53;38.78;;;10.88;;
32824;SDS011;51060;42.640;24.356;2022-09-30T03:53:19;22.85;;;11.15;;
32824;SDS011;51060;42.640;24.356;2022-09-30T03:55:46;23.60;;;12.50;;
32824;SDS011;51060;42.640;24.356;2022-09-30T03:58:15;32.10;;;14.83;;
32824;SDS011;51060;42.640;24.356;2022-09-30T04:00:50;28.95;;;13.50;;
32824;SDS011;51060;42.640;24.356;2022-09-30T04:03:17;22.00;;;12.85;;
32824;SDS011;51060;42.640;24.356;2022-09-30T04:05:47;16.67;;;12.93;;
32824;SDS011;51060;42.640;24.356;2022-09-30T04:08:13;40.20;;;14.00;;
32824;SDS011;51060;42.640;24.356;2022-09-30T04:10:42;22.90;;;12.35;;
32824;SDS011;51060;42.640;24.356;2022-09-30T04:13:10;22.48;;;10.68;;
32824;SDS011;51060;42.640;24.356;2022-09-30T04:15:36;17.08;;;10.05;;
32824;SDS011;51060;42.640;24.356;2022-09-30T04:18:02;15.70;;;10.88;;
32824;SDS011;51060;42.640;24.356;2022-09-30T04:20:29;17.35;;;11.90;;
32824;SDS011;51060;42.640;24.356;2022-09-30T04:22:59;25.88;;;16.70;;
32824;SDS011;51060;42.640;24.356;2022-09-30T04:25:26;19.20;;;12.77;;
32824;SDS011;51060;42.640;24.356;2022-09-30T04:27:52;17.95;;;12.82;;
32824;SDS011;51060;42.640;24.356;2022-09-30T04:30:18;19.77;;;13.30;;
32824;SDS011;51060;42.640;24.356;2022-09-30T04:32:43;16.17;;;12.33;;
32824;SDS011;51060;42.640;24.356;2022-09-30T04:35:12;12.45;;;10.07;;
32824;SDS011;51060;42.640;24.356;2022-09-30T04:37:44;19.92;;;12.27;;
32824;SDS011;51060;42.640;24.356;2022-09-30T04:40:11;12.65;;;10.68;;
32824;SDS011;51060;42.640;24.356;2022-09-30T04:42:38;13.17;;;10.80;;
32824;SDS011;51060;42.640;24.356;2022-09-30T04:45:05;14.83;;;11.40;;
32824;SDS011;51060;42.640;24.356;2022-09-30T04:47:31;30.13;;;17.52;;
32824;SDS011;51060;42.640;24.356;2022-09-30T04:49:57;26.20;;;16.60;;
32824;SDS011;51060;42.640;24.356;2022-09-30T04:52:22;36.40;;;20.25;;
32824;SDS011;51060;42.640;24.356;2022-09-30T04:54:48;20.50;;;15.77;;
32824;SDS011;51060;42.640;24.356;2022-09-30T04:57:13;20.43;;;13.43;;
32824;SDS011;51060;42.640;24.356;2022-09-30T04:59:39;22.17;;;11.90;;
32824;SDS011;51060;42.640;24.356;2022-09-30T05:02:05;16.50;;;11.48;;
32824;SDS011;51060;42.640;24.356;2022-09-30T05:04:31;17.42;;;10.95;;
32824;SDS011;51060;42.640;24.356;2022-09-30T05:06:58;17.80;;;12.27;;
32824;SDS011;51060;42.640;24.356;2022-09-30T05:09:26;18.65;;;14.73;;
32824;SDS011;51060;42.640;24.356;2022-09-30T05:11:52;17.63;;;13.60;;
32824;SDS011;51060;42.640;24.356;2022-09-30T05:14:18;19.30;;;14.57;;
32824;SDS011;51060;42.640;24.356;2022-09-30T05:16:43;19.63;;;14.90;;
32824;SDS011;51060;42.640;24.356;2022-09-30T05:19:09;22.02;;;15.88;;
32824;SDS011;51060;42.640;24.356;2022-09-30T05:21:35;26.38;;;17.80;;
32824;SDS011;51060;42.640;24.356;2022-09-30T05:24:01;18.02;;;16.13;;
32824;SDS011;51060;42.640;24.356;2022-09-30T05:26:29;21.80;;;19.02;;
32824;SDS011;51060;42.640;24.356;2022-09-30T05:28:54;32.33;;;24.98;;
32824;SDS011;51060;42.640;24.356;2022-09-30T05:31:20;33.45;;;24.35;;
32824;SDS011;51060;42.640;24.356;2022-09-30T05:33:46;35.30;;;25.35;;
32824;SDS011;51060;42.640;24.356;2022-09-30T05:36:13;39.22;;;28.17;;
32824;SDS011;51060;42.640;24.356;2022-09-30T05:38:39;37.90;;;27.77;;
32824;SDS011;51060;42.640;24.356;2022-09-30T05:41:08;34.25;;;24.70;;
32824;SDS011;51060;42.640;24.356;2022-09-30T05:43:39;30.20;;;24.75;;
32824;SDS011;51060;42.640;24.356;2022-09-30T05:46:09;30.67;;;25.27;;
32824;SDS011;51060;42.640;24.356;2022-09-30T05:48:35;28.50;;;23.85;;
32824;SDS011;51060;42.640;24.356;2022-09-30T05:51:02;22.45;;;19.73;;
32824;SDS011;51060;42.640;24.356;2022-09-30T05:53:28;22.48;;;18.80;;
32824;SDS011;51060;42.640;24.356;2022-09-30T05:55:56;24.03;;;19.57;;
32824;SDS011;51060;42.640;24.356;2022-09-30T05:58:22;19.88;;;17.67;;
32824;SDS011;51060;42.640;24.356;2022-09-30T06:00:48;17.55;;;15.48;;
32824;SDS011;51060;42.640;24.356;2022-09-30T06:03:15;18.98;;;15.70;;
32824;SDS011;51060;42.640;24.356;2022-09-30T06:05:42;20.58;;;15.90;;
32824;SDS011;51060;42.640;24.356;2022-09-30T06:08:09;17.30;;;15.50;;
32824;SDS011;51060;42.640;24.356;2022-09-30T06:10:35;18.25;;;16.27;;
32824;SDS011;51060;42.640;24.356;2022-09-30T06:13:04;17.50;;;15.68;;
32824;SDS011;51060;42.640;24.356;2022-09-30T06:15:29;20.00;;;16.52;;
32824;SDS011;51060;42.640;24.356;2022-09-30T06:17:55;18.65;;;16.65;;
32824;SDS011;51060;42.640;24.356;2022-09-30T06:20:22;20.90;;;18.80;;
32824;SDS011;51060;42.640;24.356;2022-09-30T06:22:48;21.33;;;18.88;;
32824;SDS011;51060;42.640;24.356;2022-09-30T06:25:13;19.52;;;17.52;;
32824;SDS011;51060;42.640;24.356;2022-09-30T06:27:42;21.55;;;18.10;;
32824;SDS011;51060;42.640;24.356;2022-09-30T06:30:09;19.65;;;17.60;;
32824;SDS011;51060;42.640;24.356;2022-09-30T06:32:34;22.40;;;19.65;;
32824;SDS011;51060;42.640;24.356;2022-09-30T06:35:00;23.08;;;20.58;;
32824;SDS011;51060;42.640;24.356;2022-09-30T06:37:28;20.45;;;18.33;;
32824;SDS011;51060;42.640;24.356;2022-09-30T06:39:54;19.70;;;17.60;;
32824;SDS011;51060;42.640;24.356;2022-09-30T06:42:19;19.73;;;15.82;;
32824;SDS011;51060;42.640;24.356;2022-09-30T06:44:48;17.30;;;14.93;;
32824;SDS011;51060;42.640;24.356;2022-09-30T06:47:13;17.98;;;16.17;;
32824;SDS011;51060;42.640;24.356;2022-09-30T06:49:39;20.13;;;18.02;;
32824;SDS011;51060;42.640;24.356;2022-09-30T06:52:07;17.15;;;15.35;;
32824;SDS011;51060;42.640;24.356;2022-09-30T06:54:36;16.80;;;15.00;;
32824;SDS011;51060;42.640;24.356;2022-09-30T06:57:01;15.63;;;14.00;;
32824;SDS011;51060;42.640;24.356;2022-09-30T06:59:27;13.75;;;11.93;;
32824;SDS011;51060;42.640;24.356;2022-09-30T07:01:52;16.05;;;12.73;;
32824;SDS011;51060;42.640;24.356;2022-09-30T07:04:19;13.27;;;11.88;;
32824;SDS011;51060;42.640;24.356;2022-09-30T07:06:45;12.95;;;11.65;;
32824;SDS011;51060;42.640;24.356;2022-09-30T07:09:11;14.23;;;11.13;;
32824;SDS011;51060;42.640;24.356;2022-09-30T07:11:37;12.40;;;10.23;;
32824;SDS011;51060;42.640;24.356;2022-09-30T07:14:03;9.90;;;9.00;;
32824;SDS011;51060;42.640;24.356;2022-09-30T07:16:29;9.90;;;8.77;;
32824;SDS011;51060;42.640;24.356;2022-09-30T07:19:01;9.65;;;8.65;;
32824;SDS011;51060;42.640;24.356;2022-09-30T07:21:27;10.40;;;9.38;;
32824;SDS011;51060;42.640;24.356;2022-09-30T07:23:55;8.60;;;7.90;;
32824;SDS011;51060;42.640;24.356;2022-09-30T07:26:23;6.70;;;5.95;;
32824;SDS011;51060;42.640;24.356;2022-09-30T07:28:49;8.23;;;6.82;;
32824;SDS011;51060;42.640;24.356;2022-09-30T07:31:17;8.68;;;7.45;;
32824;SDS011;51060;42.640;24.356;2022-09-30T07:33:45;7.68;;;6.35;;
32824;SDS011;51060;42.640;24.356;2022-09-30T07:36:11;7.68;;;6.90;;
32824;SDS011;51060;42.640;24.356;2022-09-30T07:38:39;6.72;;;6.13;;
32824;SDS011;51060;42.640;24.356;2022-09-30T07:41:09;7.53;;;6.00;;
32824;SDS011;51060;42.640;24.356;2022-09-30T07:43:41;5.60;;;4.93;;
32824;SDS011;51060;42.640;24.356;2022-09-30T07:48:34;5.85;;;4.90;;
32824;SDS011;51060;42.640;24.356;2022-09-30T07:51:16;7.13;;;5.70;;
32824;SDS011;51060;42.640;24.356;2022-09-30T07:53:48;6.20;;;4.72;;
32824;SDS011;51060;42.640;24.356;2022-09-30T07:56:15;5.45;;;4.47;;
32824;SDS011;51060;42.640;24.356;2022-09-30T07:58:42;4.88;;;4.35;;
32824;SDS011;51060;42.640;24.356;2022-09-30T08:01:07;4.13;;;3.65;;
32824;SDS011;51060;42.640;24.356;2022-09-30T08:03:33;4.35;;;3.88;;
32824;SDS011;51060;42.640;24.356;2022-09-30T08:06:03;5.30;;;4.38;;
32824;SDS011;51060;42.640;24.356;2022-09-30T08:08:35;8.23;;;6.38;;
32824;SDS011;51060;42.640;24.356;2022-09-30T08:11:01;10.43;;;7.38;;
32824;SDS011;51060;42.640;24.356;2022-09-30T08:13:27;6.53;;;5.55;;
32824;SDS011;51060;42.640;24.356;2022-09-30T08:15:53;6.35;;;4.30;;
32824;SDS011;51060;42.640;24.356;2022-09-30T08:18:18;4.25;;;3.85;;
32824;SDS011;51060;42.640;24.356;2022-09-30T08:20:44;5.38;;;3.97;;
32824;SDS011;51060;42.640;24.356;2022-09-30T08:23:09;5.68;;;4.13;;
32824;SDS011;51060;42.640;24.356;2022-09-30T08:25:35;4.07;;;3.30;;
32824;SDS011;51060;42.640;24.356;2022-09-30T08:28:01;4.18;;;2.90;;
32824;SDS011;51060;42.640;24.356;2022-09-30T08:30:26;3.38;;;2.83;;
32824;SDS011;51060;42.640;24.356;2022-09-30T08:32:52;3.78;;;3.03;;
32824;SDS011;51060;42.640;24.356;2022-09-30T08:35:18;3.83;;;3.03;;
32824;SDS011;51060;42.640;24.356;2022-09-30T08:37:43;4.43;;;2.92;;
32824;SDS011;51060;42.640;24.356;2022-09-30T08:40:31;3.78;;;2.50;;
32824;SDS011;51060;42.640;24.356;2022-09-30T08:43:12;4.15;;;3.05;;
32824;SDS011;51060;42.640;24.356;2022-09-30T08:45:48;3.55;;;2.70;;
32824;SDS011;51060;42.640;24.356;2022-09-30T08:53:40;4.28;;;2.72;;
32824;SDS011;51060;42.640;24.356;2022-09-30T08:56:06;3.28;;;2.72;;
32824;SDS011;51060;42.640;24.356;2022-09-30T08:58:34;3.25;;;2.80;;
32824;SDS011;51060;42.640;24.356;2022-09-30T09:01:05;3.35;;;2.72;;
32824;SDS011;51060;42.640;24.356;2022-09-30T09:03:39;3.20;;;2.13;;
32824;SDS011;51060;42.640;24.356;2022-09-30T09:19:56;5.00;;;1.90;;
32824;SDS011;51060;42.640;24.356;2022-09-30T09:22:34;3.00;;;1.90;;
32824;SDS011;51060;42.640;24.356;2022-09-30T09:25:00;2.67;;;1.85;;
32824;SDS011;51060;42.640;24.356;2022-09-30T09:28:00;3.00;;;1.95;;
32824;SDS011;51060;42.640;24.356;2022-09-30T09:30:25;2.15;;;1.75;;
32824;SDS011;51060;42.640;24.356;2022-09-30T09:32:58;1.80;;;1.70;;
32824;SDS011;51060;42.640;24.356;2022-09-30T09:35:32;4.00;;;2.05;;
32824;SDS011;51060;42.640;24.356;2022-09-30T09:43:58;3.65;;;2.33;;
32824;SDS011;51060;42.640;24.356;2022-09-30T09:46:49;3.65;;;2.35;;
32824;SDS011;51060;42.640;24.356;2022-09-30T09:49:30;2.67;;;2.10;;
32824;SDS011;51060;42.640;24.356;2022-09-30T09:54:31;4.18;;;2.85;;
32824;SDS011;51060;42.640;24.356;2022-09-30T09:57:35;5.65;;;3.45;;
32824;SDS011;51060;42.640;24.356;2022-09-30T10:00:00;4.07;;;2.97;;
32824;SDS011;51060;42.640;24.356;2022-09-30T10:03:03;3.13;;;2.00;;
32824;SDS011;51060;42.640;24.356;2022-09-30T10:05:33;2.53;;;1.85;;
32824;SDS011;51060;42.640;24.356;2022-09-30T10:08:14;2.17;;;1.80;;
32824;SDS011;51060;42.640;24.356;2022-09-30T10:10:43;2.25;;;1.40;;
32824;SDS011;51060;42.640;24.356;2022-09-30T10:14:01;3.53;;;1.90;;
32824;SDS011;51060;42.640;24.356;2022-09-30T10:16:02;2.03;;;1.83;;
32824;SDS011;51060;42.640;24.356;2022-09-30T10:18:32;2.72;;;2.08;;
32824;SDS011;51060;42.640;24.356;2022-09-30T10:21:04;2.75;;;2.20;;
32824;SDS011;51060;42.640;24.356;2022-09-30T10:23:44;2.72;;;1.90;;
32824;SDS011;51060;42.640;24.356;2022-09-30T10:28:48;1.95;;;1.60;;
32824;SDS011;51060;42.640;24.356;2022-09-30T10:34:16;2.25;;;1.63;;
32824;SDS011;51060;42.640;24.356;2022-09-30T10:37:00;1.50;;;1.40;;
32824;SDS011;51060;42.640;24.356;2022-09-30T10:39:34;2.13;;;1.55;;
32824;SDS011;51060;42.640;24.356;2022-09-30T10:42:07;1.80;;;1.70;;
32824;SDS011;51060;42.640;24.356;2022-09-30T10:44:51;3.28;;;1.95;;
32824;SDS011;51060;42.640;24.356;2022-09-30T10:47:19;3.00;;;2.08;;
32824;SDS011;51060;42.640;24.356;2022-09-30T10:50:04;1.92;;;1.67;;
32824;SDS011;51060;42.640;24.356;2022-09-30T10:52:33;2.90;;;2.10;;
32824;SDS011;51060;42.640;24.356;2022-09-30T10:55:05;3.30;;;3.00;;
32824;SDS011;51060;42.640;24.356;2022-09-30T10:57:34;2.38;;;1.58;;
32824;SDS011;51060;42.640;24.356;2022-09-30T11:05:16;2.33;;;2.13;;
32824;SDS011;51060;42.640;24.356;2022-09-30T11:18:29;4.45;;;2.00;;
32824;SDS011;51060;42.640;24.356;2022-09-30T11:21:01;2.13;;;1.55;;
32824;SDS011;51060;42.640;24.356;2022-09-30T11:24:10;3.67;;;1.67;;
32824;SDS011;51060;42.640;24.356;2022-09-30T11:29:14;2.47;;;1.70;;
32824;SDS011;51060;42.640;24.356;2022-09-30T11:53:30;3.08;;;1.90;;
32824;SDS011;51060;42.640;24.356;2022-09-30T11:56:41;2.17;;;1.75;;
32824;SDS011;51060;42.640;24.356;2022-09-30T11:59:22;2.30;;;1.45;;
32824;SDS011;51060;42.640;24.356;2022-09-30T12:01:52;2.60;;;1.88;;
32824;SDS011;51060;42.640;24.356;2022-09-30T12:04:52;2.90;;;2.17;;
32824;SDS011;51060;42.640;24.356;2022-09-30T12:07:20;3.83;;;3.00;;
32824;SDS011;51060;42.640;24.356;2022-09-30T12:10:30;2.63;;;1.83;;
32824;SDS011;51060;42.640;24.356;2022-09-30T12:12:45;2.72;;;1.88;;
32824;SDS011;51060;42.640;24.356;2022-09-30T12:15:14;3.88;;;1.63;;
32824;SDS011;51060;42.640;24.356;2022-09-30T12:17:45;3.05;;;1.55;;
32824;SDS011;51060;42.640;24.356;2022-09-30T12:23:30;2.45;;;1.60;;
32824;SDS011;51060;42.640;24.356;2022-09-30T12:25:57;2.60;;;1.30;;
32824;SDS011;51060;42.640;24.356;2022-09-30T12:28:34;2.33;;;1.50;;
32824;SDS011;51060;42.640;24.356;2022-09-30T12:31:46;2.78;;;1.58;;
32824;SDS011;51060;42.640;24.356;2022-09-30T12:34:25;3.25;;;1.50;;
32824;SDS011;51060;42.640;24.356;2022-09-30T12:37:14;3.08;;;1.70;;
32824;SDS011;51060;42.640;24.356;2022-09-30T12:48:19;2.13;;;1.45;;
32824;SDS011;51060;42.640;24.356;2022-09-30T12:50:47;2.50;;;2.22;;
32824;SDS011;51060;42.640;24.356;2022-09-30T12:53:21;5.32;;;4.20;;
32824;SDS011;51060;42.640;24.356;2022-09-30T12:55:52;3.53;;;1.45;;
32824;SDS011;51060;42.640;24.356;2022-09-30T12:58:25;1.60;;;1.50;;
32824;SDS011;51060;42.640;24.356;2022-09-30T13:01:14;2.90;;;1.70;;
32824;SDS011;51060;42.640;24.356;2022-09-30T13:06:16;2.20;;;1.60;;
32824;SDS011;51060;42.640;24.356;2022-09-30T13:08:44;3.42;;;2.80;;
32824;SDS011;51060;42.640;24.356;2022-09-30T13:11:34;2.78;;;1.70;;
32824;SDS011;51060;42.640;24.356;2022-09-30T13:19:41;5.03;;;2.35;;
32824;SDS011;51060;42.640;24.356;2022-09-30T13:32:37;6.70;;;4.25;;
32824;SDS011;51060;42.640;24.356;2022-09-30T13:45:56;2.80;;;1.55;;
32824;SDS011;51060;42.640;24.356;2022-09-30T13:48:29;1.70;;;1.23;;
32824;SDS011;51060;42.640;24.356;2022-09-30T13:50:57;3.65;;;1.52;;
32824;SDS011;51060;42.640;24.356;2022-09-30T13:55:58;1.98;;;1.27;;
32824;SDS011;51060;42.640;24.356;2022-09-30T14:09:18;6.93;;;6.22;;
32824;SDS011;51060;42.640;24.356;2022-09-30T14:12:02;5.00;;;4.50;;
32824;SDS011;51060;42.640;24.356;2022-09-30T14:17:10;2.45;;;1.63;;
32824;SDS011;51060;42.640;24.356;2022-09-30T14:22:29;3.45;;;2.40;;
32824;SDS011;51060;42.640;24.356;2022-09-30T14:24:55;16.05;;;13.18;;
32824;SDS011;51060;42.640;24.356;2022-09-30T14:27:23;3.17;;;2.88;;
32824;SDS011;51060;42.640;24.356;2022-09-30T14:30:35;3.08;;;2.80;;
32824;SDS011;51060;42.640;24.356;2022-09-30T14:35:29;3.50;;;2.83;;
32824;SDS011;51060;42.640;24.356;2022-09-30T14:40:24;3.42;;;2.20;;
32824;SDS011;51060;42.640;24.356;2022-09-30T14:42:51;5.13;;;3.13;;
32824;SDS011;51060;42.640;24.356;2022-09-30T14:45:22;6.03;;;3.70;;
32824;SDS011;51060;42.640;24.356;2022-09-30T14:47:50;5.30;;;3.45;;
32824;SDS011;51060;42.640;24.356;2022-09-30T14:50:20;7.07;;;3.30;;
32824;SDS011;51060;42.640;24.356;2022-09-30T14:52:50;4.88;;;3.05;;
32824;SDS011;51060;42.640;24.356;2022-09-30T14:55:19;9.40;;;5.80;;
32824;SDS011;51060;42.640;24.356;2022-09-30T14:57:50;12.45;;;6.97;;
32824;SDS011;51060;42.640;24.356;2022-09-30T15:00:19;13.18;;;6.15;;
32824;SDS011;51060;42.640;24.356;2022-09-30T15:02:47;17.42;;;8.48;;
32824;SDS011;51060;42.640;24.356;2022-09-30T15:05:14;13.52;;;7.55;;
32824;SDS011;51060;42.640;24.356;2022-09-30T15:07:40;15.43;;;8.23;;
32824;SDS011;51060;42.640;24.356;2022-09-30T15:10:13;17.45;;;8.63;;
32824;SDS011;51060;42.640;24.356;2022-09-30T15:12:41;6.68;;;3.72;;
32824;SDS011;51060;42.640;24.356;2022-09-30T15:17:49;8.45;;;4.25;;
32824;SDS011;51060;42.640;24.356;2022-09-30T15:20:27;7.28;;;3.70;;
32824;SDS011;51060;42.640;24.356;2022-09-30T15:22:55;9.52;;;5.35;;
32824;SDS011;51060;42.640;24.356;2022-09-30T15:25:25;7.85;;;5.70;;
32824;SDS011;51060;42.640;24.356;2022-09-30T15:27:52;8.68;;;6.43;;
32824;SDS011;51060;42.640;24.356;2022-09-30T15:32:43;8.38;;;4.55;;
32824;SDS011;51060;42.640;24.356;2022-09-30T15:35:17;18.98;;;8.25;;
32824;SDS011;51060;42.640;24.356;2022-09-30T15:37:45;28.88;;;13.85;;
32824;SDS011;51060;42.640;24.356;2022-09-30T15:40:12;27.95;;;13.13;;
32824;SDS011;51060;42.640;24.356;2022-09-30T15:42:59;19.65;;;10.38;;
32824;SDS011;51060;42.640;24.356;2022-09-30T15:45:28;12.50;;;4.50;;
32824;SDS011;51060;42.640;24.356;2022-09-30T15:47:59;8.70;;;3.50;;
32824;SDS011;51060;42.640;24.356;2022-09-30T15:50:43;8.88;;;2.78;;
32824;SDS011;51060;42.640;24.356;2022-09-30T15:53:17;9.50;;;3.25;;
32824;SDS011;51060;42.640;24.356;2022-09-30T15:55:45;13.00;;;5.53;;
32824;SDS011;51060;42.640;24.356;2022-09-30T16:01:19;9.38;;;5.20;;
32824;SDS011;51060;42.640;24.356;2022-09-30T16:03:54;8.27;;;4.22;;
32824;SDS011;51060;42.640;24.356;2022-09-30T16:06:23;6.45;;;4.63;;
32824;SDS011;51060;42.640;24.356;2022-09-30T16:14:45;5.63;;;4.00;;
32824;SDS011;51060;42.640;24.356;2022-09-30T16:17:22;10.60;;;6.75;;
32824;SDS011;51060;42.640;24.356;2022-09-30T16:25:07;5.75;;;5.20;;
32824;SDS011;51060;42.640;24.356;2022-09-30T16:30:25;7.72;;;5.95;;
32824;SDS011;51060;42.640;24.356;2022-09-30T16:32:53;7.60;;;5.82;;
32824;SDS011;51060;42.640;24.356;2022-09-30T16:35:23;14.68;;;9.57;;
32824;SDS011;51060;42.640;24.356;2022-09-30T16:37:53;11.82;;;5.68;;
32824;SDS011;51060;42.640;24.356;2022-09-30T16:40:26;9.70;;;4.15;;
32824;SDS011;51060;42.640;24.356;2022-09-30T16:42:53;9.00;;;4.53;;
32824;SDS011;51060;42.640;24.356;2022-09-30T16:45:25;9.35;;;5.10;;
32824;SDS011;51060;42.640;24.356;2022-09-30T16:47:51;8.70;;;5.22;;
32824;SDS011;51060;42.640;24.356;2022-09-30T16:50:22;9.45;;;4.15;;
32824;SDS011;51060;42.640;24.356;2022-09-30T16:53:07;6.30;;;4.63;;
32824;SDS011;51060;42.640;24.356;2022-09-30T16:55:36;19.35;;;9.82;;
32824;SDS011;51060;42.640;24.356;2022-09-30T16:58:02;11.88;;;7.18;;
32824;SDS011;51060;42.640;24.356;2022-09-30T17:00:29;21.83;;;12.90;;
32824;SDS011;51060;42.640;24.356;2022-09-30T17:02:56;18.42;;;11.48;;
32824;SDS011;51060;42.640;24.356;2022-09-30T17:05:22;18.83;;;13.57;;
32824;SDS011;51060;42.640;24.356;2022-09-30T17:07:51;19.73;;;11.63;;
32824;SDS011;51060;42.640;24.356;2022-09-30T17:10:20;13.20;;;11.30;;
32824;SDS011;51060;42.640;24.356;2022-09-30T17:12:47;20.60;;;12.98;;
32824;SDS011;51060;42.640;24.356;2022-09-30T17:15:14;24.42;;;21.83;;
32824;SDS011;51060;42.640;24.356;2022-09-30T17:17:41;28.88;;;23.35;;
32824;SDS011;51060;42.640;24.356;2022-09-30T17:20:06;52.55;;;26.83;;
32824;SDS011;51060;42.640;24.356;2022-09-30T17:22:33;47.13;;;26.63;;
32824;SDS011;51060;42.640;24.356;2022-09-30T17:24:58;29.40;;;16.48;;
32824;SDS011;51060;42.640;24.356;2022-09-30T17:27:24;33.88;;;15.10;;
32824;SDS011;51060;42.640;24.356;2022-09-30T17:29:50;29.58;;;13.38;;
32824;SDS011;51060;42.640;24.356;2022-09-30T17:32:15;29.58;;;16.70;;
32824;SDS011;51060;42.640;24.356;2022-09-30T17:34:41;35.10;;;19.38;;
32824;SDS011;51060;42.640;24.356;2022-09-30T17:37:06;28.55;;;20.35;;
32824;SDS011;51060;42.640;24.356;2022-09-30T17:39:32;29.42;;;20.13;;
32824;SDS011;51060;42.640;24.356;2022-09-30T17:41:58;20.38;;;13.68;;
32824;SDS011;51060;42.640;24.356;2022-09-30T17:44:42;10.68;;;7.60;;
32824;SDS011;51060;42.640;24.356;2022-09-30T17:47:07;11.50;;;7.85;;
32824;SDS011;51060;42.640;24.356;2022-09-30T17:49:33;19.52;;;11.95;;
32824;SDS011;51060;42.640;24.356;2022-09-30T17:52:00;18.67;;;11.70;;
32824;SDS011;51060;42.640;24.356;2022-09-30T17:54:26;16.77;;;10.60;;
32824;SDS011;51060;42.640;24.356;2022-09-30T17:56:52;17.52;;;9.48;;
32824;SDS011;51060;42.640;24.356;2022-09-30T17:59:19;14.10;;;11.07;;
32824;SDS011;51060;42.640;24.356;2022-09-30T18:01:48;17.08;;;12.30;;
32824;SDS011;51060;42.640;24.356;2022-09-30T18:04:15;18.83;;;11.93;;
32824;SDS011;51060;42.640;24.356;2022-09-30T18:06:41;18.10;;;10.75;;
32824;SDS011;51060;42.640;24.356;2022-09-30T18:09:06;15.65;;;7.63;;
32824;SDS011;51060;42.640;24.356;2022-09-30T18:11:32;10.60;;;6.47;;
32824;SDS011;51060;42.640;24.356;2022-09-30T18:13:58;9.85;;;5.50;;
32824;SDS011;51060;42.640;24.356;2022-09-30T18:16:24;7.95;;;5.10;;
32824;SDS011;51060;42.640;24.356;2022-09-30T18:18:54;12.75;;;6.10;;
32824;SDS011;51060;42.640;24.356;2022-09-30T18:21:23;10.05;;;5.80;;
32824;SDS011;51060;42.640;24.356;2022-09-30T18:23:50;10.05;;;6.45;;
32824;SDS011;51060;42.640;24.356;2022-09-30T18:26:16;9.13;;;6.18;;
32824;SDS011;51060;42.640;24.356;2022-09-30T18:28:42;14.27;;;6.82;;
32824;SDS011;51060;42.640;24.356;2022-09-30T18:31:09;9.77;;;7.68;;
32824;SDS011;51060;42.640;24.356;2022-09-30T18:33:34;11.18;;;7.00;;
32824;SDS011;51060;42.640;24.356;2022-09-30T18:36:02;12.13;;;8.70;;
32824;SDS011;51060;42.640;24.356;2022-09-30T18:38:31;13.50;;;8.48;;